createdAt,value
2023-02-28T04:34:59.478Z,-2.30
2023-02-28T04:45:36.204Z,-2.30
2023-02-28T04:56:15.406Z,-1.90
2023-02-28T05:06:51.201Z,-1.80
2023-02-28T05:17:26.816Z,-1.60
2023-02-28T05:28:02.708Z,-1.60
2023-02-28T05:38:39.027Z,-1.70
2023-02-28T05:49:14.695Z,-1.80
2023-02-28T05:59:50.331Z,-1.90
2023-02-28T06:10:26.295Z,-1.90
2023-02-28T06:21:02.212Z,-1.60
2023-02-28T06:31:39.447Z,-1.70
2023-02-28T06:42:14.822Z,-1.80
2023-02-28T06:52:54.795Z,-1.50
2023-02-28T07:03:34.226Z,0.90
2023-02-28T07:14:10.245Z,1.30
2023-02-28T07:24:45.994Z,3.40
2023-02-28T07:35:21.809Z,5.60
2023-02-28T07:46:01.924Z,8.20
2023-02-28T07:56:37.537Z,8.10
2023-02-28T08:07:17.847Z,10.10
2023-02-28T08:17:53.422Z,10.30
2023-02-28T08:28:29.183Z,9.10
2023-02-28T08:39:05.294Z,11.50
2023-02-28T08:49:41.113Z,12.40
2023-02-28T09:00:17.026Z,10.30
2023-02-28T09:10:53.150Z,11.20
2023-02-28T09:21:29.576Z,11.50
2023-02-28T09:32:08.755Z,12.60
2023-02-28T09:42:47.651Z,13.30
2023-02-28T09:53:34.694Z,10.60
2023-02-28T10:04:52.328Z,8.50
2023-02-28T10:15:32.027Z,7.90
2023-02-28T10:26:14.803Z,6.80
2023-02-28T10:36:52.206Z,7.00
2023-02-28T10:47:28.184Z,6.10
2023-02-28T10:58:04.069Z,5.50
2023-02-28T11:08:47.563Z,4.90
2023-02-28T11:19:31.478Z,5.20
2023-02-28T11:30:38.025Z,4.90
2023-02-28T11:41:32.251Z,5.00
2023-02-28T11:52:17.815Z,5.00
2023-02-28T12:03:16.057Z,4.90
2023-02-28T12:14:28.836Z,4.60
2023-02-28T12:25:07.618Z,4.50
2023-02-28T12:35:43.443Z,4.60
2023-02-28T12:46:24.360Z,4.40
2023-02-28T12:57:12.231Z,4.50
2023-02-28T13:08:12.758Z,4.80
2023-02-28T13:18:49.154Z,5.00
2023-02-28T13:29:42.889Z,4.60
2023-02-28T13:40:28.357Z,5.00
2023-02-28T13:51:41.684Z,5.00
2023-02-28T14:02:55.137Z,4.90
2023-02-28T14:13:45.723Z,5.10
2023-02-28T14:24:39.787Z,5.00
2023-02-28T14:35:44.397Z,5.00
2023-02-28T14:46:20.970Z,4.90
2023-02-28T14:56:57.061Z,4.80
2023-02-28T15:07:32.458Z,5.10
2023-02-28T15:18:15.387Z,5.00
2023-02-28T15:29:05.324Z,5.00
2023-02-28T15:39:45.207Z,5.10
2023-02-28T15:50:21.009Z,5.20
2023-02-28T16:01:09.419Z,5.30
2023-02-28T16:11:50.460Z,5.30
2023-02-28T16:22:26.244Z,5.30
2023-02-28T16:33:01.769Z,5.20
2023-02-28T16:43:38.906Z,5.10
2023-02-28T16:54:14.602Z,4.80
2023-02-28T17:04:50.367Z,4.60
2023-02-28T17:15:26.111Z,4.30
2023-02-28T17:26:01.574Z,4.10
2023-02-28T17:36:37.814Z,3.90
2023-02-28T17:47:13.739Z,3.90
2023-02-28T17:57:49.197Z,3.70
2023-02-28T18:08:25.283Z,3.60
2023-02-28T18:19:03.123Z,3.30
2023-02-28T18:29:40.701Z,3.20
2023-02-28T18:40:16.535Z,2.90
2023-02-28T18:50:52.368Z,2.60
2023-02-28T19:01:33.520Z,2.50
2023-02-28T19:12:09.277Z,1.90
2023-02-28T19:22:45.215Z,1.20
2023-02-28T19:33:21.276Z,1.00
2023-02-28T19:43:56.519Z,0.80
2023-02-28T19:54:32.473Z,0.50
2023-02-28T20:05:09.194Z,0.30
2023-02-28T20:15:44.950Z,0.20
2023-02-28T20:26:20.796Z,0.00
2023-02-28T20:36:58.619Z,-0.30
2023-02-28T20:47:34.424Z,-0.40
2023-02-28T20:58:10.521Z,-0.40
2023-02-28T21:08:46.589Z,-0.40
2023-02-28T21:19:22.157Z,-0.40
2023-02-28T21:29:57.813Z,-0.30
2023-02-28T21:40:33.730Z,-0.10
2023-02-28T21:51:13.339Z,0.00
2023-02-28T22:01:50.993Z,0.00
2023-02-28T22:12:29.098Z,0.10
2023-02-28T22:23:04.690Z,0.10
